Time;durP1;ratioP1;P1;durP2;ratioP2;P2;SDS_P1;SDS_P2;PMS_P1;PMS_P2;Temp;Humidity;BMP_temperature;BMP_pressure;BME280_temperature;BME280_humidity;BME280_pressure;Samples;Min_cycle;Max_cycle;Signal;HPM_P1;HPM_P2
2023/07/31 00:01:10;;;;;;;;;4.67;2.67;;;;;21.44;58.19;101297.16;5076253;27;63902;-54
2023/07/31 00:03:36;;;;;;;;;3.33;2.67;;;;;21.44;58.40;101291.75;5070030;28;64137;-55
2023/07/31 00:06:01;;;;;;;;;3.00;2.00;;;;;21.43;58.70;101279.22;5070022;28;67403;-54
2023/07/31 00:08:26;;;;;;;;;5.00;2.00;;;;;21.41;58.13;101286.63;5075335;27;59734;-55
2023/07/31 00:10:52;;;;;;;;;3.00;3.00;;;;;21.38;58.14;101287.75;5075633;28;45966;-54
2023/07/31 00:13:18;;;;;;;;;1.50;1.50;;;;;21.35;58.17;101293.44;5076572;27;45365;-55
2023/07/31 00:15:43;;;;;;;;;4.00;3.00;;;;;21.37;58.28;101290.56;5079263;27;66754;-54
2023/07/31 00:18:08;;;;;;;;;2.00;2.00;;;;;21.37;57.63;101272.50;5077646;27;45456;-54
2023/07/31 00:20:34;;;;;;;;;2.67;2.67;;;;;21.37;57.98;101271.63;5071471;28;45378;-54
2023/07/31 00:22:59;;;;;;;;;7.00;2.33;;;;;21.37;58.43;101266.22;5075729;28;65317;-54
2023/07/31 00:25:24;;;;;;;;;3.25;3.25;;;;;21.32;57.77;101253.97;5080923;27;45367;-54
2023/07/31 00:27:50;;;;;;;;;2.00;2.00;;;;;21.28;57.82;101257.09;5079880;27;63442;-54
2023/07/31 00:30:16;;;;;;;;;4.00;3.00;;;;;21.28;58.10;101260.66;5078831;27;64428;-54
2023/07/31 00:32:41;;;;;;;;;2.25;2.25;;;;;21.27;58.21;101264.34;5076630;27;45575;-54
2023/07/31 00:35:06;;;;;;;;;3.25;2.00;;;;;21.27;57.84;101260.78;5078547;28;45549;-54
2023/07/31 00:37:32;;;;;;;;;3.00;1.67;;;;;21.24;58.00;101259.22;5080494;27;52923;-55
2023/07/31 00:39:57;;;;;;;;;4.00;2.00;;;;;21.21;57.88;101256.78;5076734;28;61579;-54
2023/07/31 00:42:23;;;;;;;;;2.50;2.50;;;;;21.20;57.63;101262.31;5075366;28;49820;-54
2023/07/31 00:44:48;;;;;;;;;3.00;3.00;;;;;21.19;57.79;101257.91;5075860;28;46042;-55
2023/07/31 00:47:13;;;;;;;;;4.33;4.33;;;;;21.16;57.83;101261.75;5080359;27;67899;-54
2023/07/31 00:49:39;;;;;;;;;2.75;2.25;;;;;21.14;57.72;101256.44;5074678;28;56099;-53
2023/07/31 00:52:04;;;;;;;;;4.00;4.00;;;;;21.16;57.55;101250.94;5079357;27;45809;-54
2023/07/31 00:54:30;;;;;;;;;6.00;3.00;;;;;21.15;57.68;101251.91;5077995;27;45640;-55
2023/07/31 00:56:56;;;;;;;;;2.67;2.33;;;;;21.15;57.82;101252.75;5055994;28;45532;-55
2023/07/31 00:59:21;;;;;;;;;4.00;4.00;;;;;21.12;57.58;101250.34;5073542;28;66952;-54
2023/07/31 01:01:47;;;;;;;;;2.67;1.67;;;;;21.11;57.87;101250.47;5075415;27;45279;-54
2023/07/31 01:04:13;;;;;;;;;2.00;2.00;;;;;21.10;58.24;101246.06;5079880;27;67105;-54
2023/07/31 01:07:00;;;;;;;;;6.75;1.50;;;;;21.09;57.74;101239.81;5077289;27;45760;-54
2023/07/31 01:09:45;;;;;;;;;4.00;3.00;;;;;21.10;57.41;101229.81;5073653;28;45559;-54
2023/07/31 01:12:16;;;;;;;;;3.33;3.00;;;;;21.04;57.99;101227.66;5076479;28;45353;-55
2023/07/31 01:14:50;;;;;;;;;4.75;2.00;;;;;21.01;57.94;101223.38;5076903;28;46212;-54
2023/07/31 01:17:16;;;;;;;;;2.00;2.00;;;;;20.97;57.32;101214.66;5063720;28;45990;-54
2023/07/31 01:19:41;;;;;;;;;2.00;2.00;;;;;20.96;58.51;101206.69;5077347;27;69274;-53
2023/07/31 01:22:29;;;;;;;;;3.33;3.33;;;;;20.97;57.52;101206.56;5071813;28;45632;-53
2023/07/31 01:25:21;;;;;;;;;2.67;2.67;;;;;20.97;58.30;101203.84;5075057;28;46394;-53
2023/07/31 01:28:11;;;;;;;;;2.00;2.00;;;;;20.96;57.56;101202.16;5073599;28;45252;-54
2023/07/31 01:30:41;;;;;;;;;1.00;1.00;;;;;20.94;57.79;101214.09;5075535;28;45453;-54
2023/07/31 01:33:08;;;;;;;;;2.33;2.33;;;;;20.91;58.04;101217.06;5074700;27;45341;-54
2023/07/31 01:35:34;;;;;;;;;3.75;2.25;;;;;20.88;57.57;101209.22;5102522;27;46146;-53
2023/07/31 01:37:59;;;;;;;;;2.00;2.00;;;;;20.84;58.17;101213.19;5075853;27;45508;-55
2023/07/31 01:40:25;;;;;;;;;2.00;2.00;;;;;20.82;57.44;101218.75;5074806;27;64183;-54
2023/07/31 01:42:50;;;;;;;;;5.00;3.67;;;;;20.81;57.68;101204.34;5071562;28;68214;-53
2023/07/31 01:45:15;;;;;;;;;6.00;3.00;;;;;20.77;57.48;101205.59;5065560;28;48675;-54
2023/07/31 01:47:41;;;;;;;;;4.50;3.00;;;;;20.74;57.65;101205.88;5065222;28;45412;-58
2023/07/31 01:50:06;;;;;;;;;1.75;1.00;;;;;20.72;58.08;101217.81;5073717;28;45382;-53
2023/07/31 01:52:32;;;;;;;;;2.75;2.75;;;;;20.73;58.02;101212.28;5066634;27;45535;-54
2023/07/31 01:54:57;;;;;;;;;2.00;1.00;;;;;20.75;58.26;101206.72;5074549;27;55589;-53
2023/07/31 01:57:22;;;;;;;;;2.00;2.00;;;;;20.77;58.10;101211.00;5078635;27;45644;-53
2023/07/31 01:59:48;;;;;;;;;3.33;2.00;;;;;20.77;58.15;101211.00;5076131;28;64688;-51
2023/07/31 02:02:13;;;;;;;;;5.00;1.67;;;;;20.77;57.57;101212.88;5078998;27;45461;-54
2023/07/31 02:04:40;;;;;;;;;3.00;3.00;;;;;20.78;57.98;101206.44;5076996;28;74003;-53
2023/07/31 02:07:05;;;;;;;;;3.33;1.67;;;;;20.76;57.58;101209.28;5075582;27;45495;-53
2023/07/31 02:09:30;;;;;;;;;3.00;3.00;;;;;20.77;57.33;101212.88;5075608;28;45378;-54
2023/07/31 02:11:56;;;;;;;;;3.00;1.67;;;;;20.78;57.55;101217.25;5076592;27;66959;-53
2023/07/31 02:14:21;;;;;;;;;2.33;1.00;;;;;20.75;57.43;101209.44;5074054;27;64968;-54
2023/07/31 02:16:47;;;;;;;;;4.67;2.00;;;;;20.77;57.54;101199.34;5078722;28;45296;-53
2023/07/31 02:19:12;;;;;;;;;1.00;1.00;;;;;20.76;56.82;101187.66;5076832;28;67161;-54
2023/07/31 02:21:37;;;;;;;;;2.00;2.00;;;;;20.72;57.23;101186.22;5092304;27;45296;-54
2023/07/31 02:24:03;;;;;;;;;2.00;2.00;;;;;20.73;57.49;101181.66;5077838;28;67179;-54
2023/07/31 02:26:28;;;;;;;;;2.00;2.00;;;;;20.71;57.00;101187.22;5073240;27;45358;-54
2023/07/31 02:28:53;;;;;;;;;3.00;1.25;;;;;20.71;56.71;101187.22;5074329;28;45480;-54
2023/07/31 02:31:19;;;;;;;;;4.00;3.00;;;;;20.70;57.24;101184.66;5076188;27;69821;-53
2023/07/31 02:33:44;;;;;;;;;1.00;1.00;;;;;20.66;56.53;101171.38;5080356;27;68431;-53
2023/07/31 02:36:09;;;;;;;;;2.00;1.75;;;;;20.60;56.94;101171.91;5077348;28;45524;-55
2023/07/31 02:38:35;;;;;;;;;2.00;1.25;;;;;20.60;56.53;101171.91;5074942;28;55502;-55
2023/07/31 02:41:00;;;;;;;;;2.75;1.50;;;;;20.57;56.18;101166.78;5072345;27;49077;-55
2023/07/31 02:43:25;;;;;;;;;1.00;1.00;;;;;20.54;57.00;101172.44;5071449;28;52617;-55
2023/07/31 02:45:52;;;;;;;;;1.00;1.00;;;;;20.53;57.02;101164.47;5074790;28;69322;-56
2023/07/31 02:48:17;;;;;;;;;2.00;2.00;;;;;20.50;56.59;101163.72;5075710;27;45372;-55
2023/07/31 02:50:43;;;;;;;;;1.00;1.00;;;;;20.42;56.34;101149.19;5076267;27;45304;-55
2023/07/31 02:53:08;;;;;;;;;2.50;2.50;;;;;20.39;56.75;101146.75;5074009;27;48672;-55
2023/07/31 02:55:33;;;;;;;;;4.00;3.00;;;;;20.37;56.90;101141.47;5066076;28;66538;-53
2023/07/31 02:57:59;;;;;;;;;2.00;2.00;;;;;20.33;56.84;101143.59;5074984;27;45828;-54
2023/07/31 03:00:24;;;;;;;;;0.00;0.00;;;;;20.33;56.37;101146.28;5072313;27;45451;-55
2023/07/31 03:02:49;;;;;;;;;4.00;0.25;;;;;20.30;56.76;101149.25;5067903;27;72156;-53
2023/07/31 03:05:15;;;;;;;;;2.50;1.00;;;;;20.26;56.37;101142.41;5073920;27;64422;-54
2023/07/31 03:07:40;;;;;;;;;1.00;1.00;;;;;20.19;56.45;101143.06;5073742;28;45729;-55
2023/07/31 03:10:06;;;;;;;;;1.50;1.00;;;;;20.17;56.59;101145.91;5077912;28;45420;-60
2023/07/31 03:12:32;;;;;;;;;1.00;1.00;;;;;20.20;56.81;101161.84;5062498;28;46308;-55
2023/07/31 03:14:57;;;;;;;;;3.25;1.00;;;;;20.20;56.89;101153.72;5074444;28;45419;-55
2023/07/31 03:17:22;;;;;;;;;1.25;1.25;;;;;20.21;56.67;101150.06;5077941;27;45434;-55
2023/07/31 03:19:48;;;;;;;;;1.00;1.00;;;;;20.21;56.64;101147.34;5064673;27;67057;-53
2023/07/31 03:22:13;;;;;;;;;1.00;1.00;;;;;20.22;56.63;101151.78;5069340;27;62972;-53
2023/07/31 03:24:38;;;;;;;;;0.50;0.50;;;;;20.22;56.42;101153.59;5071946;27;67918;-55
2023/07/31 03:27:04;;;;;;;;;2.25;1.00;;;;;20.24;56.55;101143.53;5082868;27;48807;-55
2023/07/31 03:29:31;;;;;;;;;1.25;1.00;;;;;20.25;56.75;101142.56;5085137;27;45413;-54
2023/07/31 03:31:56;;;;;;;;;1.00;1.00;;;;;20.23;56.05;101139.97;5093574;27;45486;-54
2023/07/31 03:34:22;;;;;;;;;1.75;1.00;;;;;20.24;56.53;101135.44;5088090;27;45681;-55
2023/07/31 03:36:48;;;;;;;;;1.00;1.00;;;;;20.25;56.35;101137.16;5089064;27;45571;-54
2023/07/31 03:39:13;;;;;;;;;2.00;2.00;;;;;20.24;55.71;101132.72;5080851;27;60723;-55
2023/07/31 03:41:38;;;;;;;;;0.75;0.50;;;;;20.19;56.12;101125.00;5084012;27;59257;-55
2023/07/31 03:44:03;;;;;;;;;1.00;1.00;;;;;20.14;55.87;101133.53;5082988;27;69871;-54
2023/07/31 03:46:29;;;;;;;;;0.75;0.75;;;;;20.13;56.48;101136.34;5080748;27;61475;-55
2023/07/31 03:48:54;;;;;;;;;2.33;2.00;;;;;20.11;56.26;101122.13;5078294;27;69285;-55
2023/07/31 03:51:20;;;;;;;;;6.33;2.67;;;;;20.09;56.85;101119.56;5081855;27;46316;-54
2023/07/31 03:53:45;;;;;;;;;1.25;1.25;;;;;20.11;56.49;101127.53;5064254;27;45253;-54
2023/07/31 03:56:11;;;;;;;;;2.50;1.00;;;;;20.14;56.09;101124.53;5091455;27;45451;-53
2023/07/31 03:58:36;;;;;;;;;2.25;0.25;;;;;20.13;55.90;101117.47;5091975;27;45504;-54
2023/07/31 04:01:02;;;;;;;;;2.00;2.00;;;;;20.12;55.99;101123.84;5091793;27;45389;-53
2023/07/31 04:03:28;;;;;;;;;1.00;1.00;;;;;20.11;55.43;101120.25;5089957;27;45446;-52
2023/07/31 04:05:55;;;;;;;;;2.50;2.00;;;;;20.12;55.69;101119.28;5094234;27;57442;-54
2023/07/31 04:08:21;;;;;;;;;1.00;1.00;;;;;20.14;55.93;101128.13;5083804;27;45736;-54
2023/07/31 04:10:47;;;;;;;;;2.75;1.75;;;;;20.14;55.30;101127.25;5086410;27;46309;-54
2023/07/31 04:13:12;;;;;;;;;1.33;0.33;;;;;20.14;55.46;101124.53;5080754;27;45781;-52
2023/07/31 04:15:38;;;;;;;;;1.75;1.75;;;;;20.14;54.99;101119.16;5086408;27;45366;-53
2023/07/31 04:18:04;;;;;;;;;1.50;1.50;;;;;20.10;54.93;101118.56;5070571;27;59735;-53
2023/07/31 04:20:29;;;;;;;;;2.50;2.25;;;;;20.10;55.28;101126.69;5082421;27;45509;-53
2023/07/31 04:22:54;;;;;;;;;2.00;2.00;;;;;20.09;55.07;101114.16;5085168;27;70511;-54
2023/07/31 04:25:20;;;;;;;;;2.00;2.00;;;;;20.09;55.40;101116.84;5070723;27;61347;-53
2023/07/31 04:27:45;;;;;;;;;4.50;2.75;;;;;20.03;55.34;101111.97;5086660;27;45460;-53
2023/07/31 04:30:10;;;;;;;;;1.00;1.00;;;;;20.03;54.71;101120.06;5087351;27;47423;-52
2023/07/31 04:32:36;;;;;;;;;1.33;1.33;;;;;20.03;55.38;101119.22;5094417;27;45452;-54
2023/07/31 04:35:02;;;;;;;;;3.67;2.00;;;;;20.01;55.25;101116.63;5088196;27;54115;-54
2023/07/31 04:37:27;;;;;;;;;2.33;2.33;;;;;20.04;55.19;101123.63;5088414;27;45288;-54
2023/07/31 04:39:53;;;;;;;;;1.00;1.00;;;;;20.06;55.47;101124.34;5085867;27;72005;-55
2023/07/31 04:42:18;;;;;;;;;2.67;2.00;;;;;20.08;55.64;101114.28;5059904;27;45498;-54
2023/07/31 04:44:43;;;;;;;;;2.00;2.00;;;;;20.08;55.47;101122.41;5091367;27;45759;-55
2023/07/31 04:47:09;;;;;;;;;5.00;3.67;;;;;20.07;55.30;101123.38;5090589;27;60051;-54
2023/07/31 04:49:34;;;;;;;;;2.33;2.33;;;;;20.09;55.25;101127.66;5063346;27;74875;-54
2023/07/31 04:51:59;;;;;;;;;3.67;3.67;;;;;20.10;55.69;101132.06;5091629;27;63457;-54
2023/07/31 04:54:25;;;;;;;;;2.00;2.00;;;;;20.09;56.14;101124.09;5088813;27;46603;-54
2023/07/31 04:56:50;;;;;;;;;3.00;3.00;;;;;20.06;55.89;101121.66;5089484;27;52535;-54
2023/07/31 04:59:15;;;;;;;;;2.25;2.25;;;;;20.03;56.65;101125.47;5085010;27;74287;-54
2023/07/31 05:01:41;;;;;;;;;4.33;3.00;;;;;20.00;56.14;101121.19;5085172;27;45492;-51
2023/07/31 05:04:06;;;;;;;;;5.00;3.00;;;;;19.99;57.23;101118.63;5098986;27;54715;-52
2023/07/31 05:06:31;;;;;;;;;2.00;2.00;;;;;19.95;56.74;101119.88;5089708;27;45415;-51
2023/07/31 05:08:57;;;;;;;;;3.00;3.00;;;;;19.91;57.22;101121.97;5087715;27;47502;-47
2023/07/31 05:11:22;;;;;;;;;3.00;3.00;;;;;19.89;57.16;101115.84;5087260;27;63444;-44
2023/07/31 05:13:47;;;;;;;;;5.33;3.67;;;;;19.87;57.23;101120.53;5082066;27;45745;-44
2023/07/31 05:16:13;;;;;;;;;2.50;2.50;;;;;19.88;57.15;101118.66;5083922;27;68737;-47
2023/07/31 05:18:38;;;;;;;;;4.33;3.00;;;;;19.85;57.00;101122.47;5086136;27;45457;-44
2023/07/31 05:21:03;;;;;;;;;3.00;3.00;;;;;19.86;57.59;101113.41;5091784;27;73169;-46
2023/07/31 05:23:31;;;;;;;;;6.67;4.00;;;;;19.88;57.15;101129.47;5072488;27;64397;-46
2023/07/31 05:26:03;;;;;;;;;3.00;2.00;;;;;19.90;57.68;101135.59;5081904;27;46008;-46
2023/07/31 05:28:28;;;;;;;;;2.00;2.00;;;;;19.89;58.14;101125.78;5087953;27;45440;-45
2023/07/31 05:30:59;;;;;;;;;5.00;3.67;;;;;19.86;57.28;101116.09;5071856;27;65402;-44
2023/07/31 05:33:24;;;;;;;;;6.00;3.00;;;;;19.85;57.80;101109.00;5085992;27;45359;-46
2023/07/31 05:35:49;;;;;;;;;4.00;2.00;;;;;19.83;58.35;101116.38;5087796;27;45423;-44
2023/07/31 05:38:15;;;;;;;;;3.00;3.00;;;;;19.81;57.79;101108.38;5092067;27;66068;-45
2023/07/31 05:40:42;;;;;;;;;5.67;3.33;;;;;19.79;58.71;101095.97;5070941;27;45494;-45
2023/07/31 05:43:08;;;;;;;;;9.33;4.33;;;;;19.79;59.40;101096.84;5053008;27;45727;-46
2023/07/31 05:45:33;;;;;;;;;4.00;4.00;;;;;19.77;59.25;101087.16;5073665;27;45589;-45
2023/07/31 05:47:58;;;;;;;;;6.00;4.00;;;;;19.79;59.50;101095.97;5087089;27;52657;-47
2023/07/31 05:50:24;;;;;;;;;6.00;4.00;;;;;19.79;59.29;101094.16;5086329;27;68766;-46
2023/07/31 05:52:49;;;;;;;;;7.00;5.33;;;;;19.80;58.90;101081.50;5082272;27;67362;-49
2023/07/31 05:55:16;;;;;;;;;4.33;4.33;;;;;19.83;59.65;101074.03;5089022;27;45381;-45
2023/07/31 05:57:41;;;;;;;;;4.00;4.00;;;;;19.86;59.33;101070.22;5093099;27;46145;-46
2023/07/31 06:00:07;;;;;;;;;3.00;3.00;;;;;19.93;59.70;101066.03;5080244;27;64515;-46
2023/07/31 06:02:36;;;;;;;;;5.00;5.00;;;;;19.96;59.34;101070.31;5081310;27;45403;-46
2023/07/31 06:05:01;;;;;;;;;6.67;5.00;;;;;19.93;59.92;101068.72;5086647;27;45433;-45
2023/07/31 06:07:27;;;;;;;;;6.33;3.00;;;;;19.98;59.79;101069.16;5071376;27;46627;-45
2023/07/31 06:09:54;;;;;;;;;4.67;4.67;;;;;20.09;59.14;101081.75;5085131;27;72483;-46
2023/07/31 06:12:20;;;;;;;;;6.33;5.00;;;;;20.11;59.95;101074.38;5089907;27;45456;-54
2023/07/31 06:14:45;;;;;;;;;6.67;4.00;;;;;20.17;60.20;101073.00;5081845;27;45868;-54
2023/07/31 06:17:10;;;;;;;;;5.67;5.00;;;;;20.26;60.18;101057.81;5088662;27;45374;-54
2023/07/31 06:19:36;;;;;;;;;5.67;4.67;;;;;20.27;59.64;101056.84;5087171;27;45425;-53
2023/07/31 06:22:01;;;;;;;;;5.00;4.67;;;;;20.29;59.92;101057.56;5089577;27;58370;-52
2023/07/31 06:24:28;;;;;;;;;9.00;4.67;;;;;20.31;59.81;101069.06;5064881;27;45551;-54
2023/07/31 06:26:53;;;;;;;;;6.00;4.67;;;;;20.33;60.39;101069.81;5089314;27;45424;-53
2023/07/31 06:29:18;;;;;;;;;9.00;5.33;;;;;20.35;59.96;101089.44;5072933;27;45515;-53
2023/07/31 06:31:44;;;;;;;;;5.67;4.33;;;;;20.37;59.80;101067.72;5093257;27;45575;-54
2023/07/31 06:34:09;;;;;;;;;2.00;2.00;;;;;20.36;60.25;101080.34;5089668;27;48414;-52
2023/07/31 06:36:35;;;;;;;;;10.33;4.00;;;;;20.39;60.03;101071.09;5090916;27;45386;-50
2023/07/31 06:39:00;;;;;;;;;4.67;4.00;;;;;20.34;60.39;101068.81;5094847;27;66338;-54
2023/07/31 06:41:25;;;;;;;;;5.33;4.00;;;;;20.33;60.58;101067.09;5096421;27;65419;-54
2023/07/31 06:43:51;;;;;;;;;3.67;3.00;;;;;20.32;61.06;101074.38;5072603;27;69524;-54
2023/07/31 06:46:16;;;;;;;;;4.33;4.00;;;;;20.31;60.14;101069.06;5092239;27;46268;-53
2023/07/31 06:48:41;;;;;;;;;7.00;5.00;;;;;20.32;60.14;101071.66;5084468;27;61432;-50
2023/07/31 06:51:07;;;;;;;;;7.67;5.00;;;;;20.37;60.19;101081.22;5090487;27;45298;-54
2023/07/31 06:53:32;;;;;;;;;6.00;6.00;;;;;20.42;60.27;101084.38;5083472;27;65138;-52
2023/07/31 06:55:57;;;;;;;;;4.33;4.33;;;;;20.46;60.92;101080.41;5074791;27;58805;-53
2023/07/31 06:58:23;;;;;;;;;5.33;5.33;;;;;20.52;59.98;101079.00;5083437;27;70756;-54
2023/07/31 07:00:49;;;;;;;;;6.00;5.00;;;;;20.62;60.85;101067.25;5089195;27;45409;-54
2023/07/31 07:03:16;;;;;;;;;4.33;4.00;;;;;20.78;59.75;101069.47;5094071;27;45522;-51
2023/07/31 07:05:41;;;;;;;;;9.00;7.00;;;;;20.92;59.80;101070.09;5087140;27;46419;-53
2023/07/31 07:08:07;;;;;;;;;7.00;6.00;;;;;21.07;59.87;101057.03;5084201;27;45579;-54
2023/07/31 07:10:33;;;;;;;;;9.67;4.67;;;;;21.15;59.24;101058.03;5079055;27;45398;-51
2023/07/31 07:12:58;;;;;;;;;5.33;4.00;;;;;21.33;58.69;101054.66;5059708;27;45308;-53
2023/07/31 07:15:24;;;;;;;;;4.00;3.67;;;;;21.61;58.47;101061.09;5088959;27;65460;-51
2023/07/31 07:17:49;;;;;;;;;5.00;4.67;;;;;21.86;58.26;101045.25;5063958;27;69885;-52
2023/07/31 07:20:14;;;;;;;;;4.33;4.33;;;;;22.01;57.24;101040.25;5092065;27;60827;-53
2023/07/31 07:22:42;;;;;;;;;5.33;5.00;;;;;22.13;57.19;101040.94;5083978;27;45434;-53
2023/07/31 07:25:08;;;;;;;;;7.67;5.67;;;;;22.24;56.28;101042.63;5095440;27;46070;-54
2023/07/31 07:27:33;;;;;;;;;4.33;3.00;;;;;22.36;56.00;101049.59;5094031;27;45618;-53
2023/07/31 07:29:59;;;;;;;;;5.00;5.00;;;;;22.46;55.86;101039.59;5096929;27;45619;-51
2023/07/31 07:32:24;;;;;;;;;8.67;6.00;;;;;22.69;55.60;101031.06;5093747;27;45429;-49
2023/07/31 07:34:49;;;;;;;;;7.67;6.00;;;;;23.03;55.38;101035.84;5067317;27;72820;-47
2023/07/31 07:37:15;;;;;;;;;8.33;4.00;;;;;23.18;54.36;101041.66;5077374;27;66679;-49
2023/07/31 07:39:41;;;;;;;;;6.00;4.67;;;;;23.36;54.20;101046.22;5088965;27;45366;-52
2023/07/31 07:42:06;;;;;;;;;7.67;5.33;;;;;23.56;53.55;101045.06;5085498;27;69262;-49
2023/07/31 07:44:31;;;;;;;;;4.00;4.00;;;;;23.79;51.85;101031.00;5104829;27;72670;-52
2023/07/31 07:46:57;;;;;;;;;8.33;5.00;;;;;24.50;52.41;101028.25;5087533;27;45271;-48
2023/07/31 07:49:22;;;;;;;;;6.67;5.00;;;;;25.07;49.94;101049.38;5096380;27;45325;-51
2023/07/31 07:51:48;;;;;;;;;9.67;4.00;;;;;26.49;48.62;101047.38;5093266;27;45573;-52
2023/07/31 07:54:14;;;;;;;;;6.00;5.33;;;;;27.27;45.94;101035.75;5089673;27;45582;-50
2023/07/31 07:56:39;;;;;;;;;6.67;5.67;;;;;28.47;45.12;101042.38;5081200;27;45312;-49
2023/07/31 07:59:05;;;;;;;;;8.25;5.50;;;;;29.78;40.77;101041.56;5080193;27;45470;-51
2023/07/31 08:01:30;;;;;;;;;5.50;4.25;;;;;30.38;42.18;101036.53;5098088;27;66286;-51
2023/07/31 08:03:55;;;;;;;;;3.25;3.25;;;;;30.87;38.75;101033.81;5091918;27;45860;-54
2023/07/31 08:06:22;;;;;;;;;6.75;3.75;;;;;30.65;39.35;101039.41;5087829;27;68250;-54
2023/07/31 08:08:47;;;;;;;;;5.25;5.25;;;;;30.30;36.79;101025.72;5069653;27;45540;-54
2023/07/31 08:11:13;;;;;;;;;9.25;6.00;;;;;29.29;38.01;101030.34;5087983;27;61362;-55
2023/07/31 08:13:38;;;;;;;;;7.75;4.00;;;;;28.72;40.30;101037.47;5075108;27;46049;-44
2023/07/31 08:16:04;;;;;;;;;4.75;4.75;;;;;30.08;40.48;101027.66;5101434;27;45496;-49
2023/07/31 08:18:31;;;;;;;;;5.75;5.25;;;;;32.59;38.13;101027.75;5087045;27;64424;-47
2023/07/31 08:20:56;;;;;;;;;5.00;3.25;;;;;35.59;32.30;101034.22;5092418;27;45668;-47
2023/07/31 08:23:21;;;;;;;;;4.75;4.50;;;;;35.35;32.27;101033.31;5079321;27;63304;-46
2023/07/31 08:25:47;;;;;;;;;3.75;3.75;;;;;33.71;31.21;101030.06;5092020;27;45413;-53
2023/07/31 08:28:12;;;;;;;;;4.25;3.00;;;;;31.92;33.35;101038.88;5086708;27;45884;-44
2023/07/31 08:30:37;;;;;;;;;5.25;4.00;;;;;30.33;36.07;101044.50;5076220;27;48842;-42
2023/07/31 08:33:03;;;;;;;;;5.00;5.00;;;;;29.25;36.71;101036.41;5087118;27;62860;-42
2023/07/31 08:35:28;;;;;;;;;3.25;3.25;;;;;28.49;38.22;101019.25;5083414;27;69149;-52
2023/07/31 08:37:54;;;;;;;;;6.00;4.50;;;;;27.48;39.19;101022.31;5088658;27;45436;-53
2023/07/31 08:40:19;;;;;;;;;5.00;4.75;;;;;26.62;40.20;101018.66;5083905;27;45309;-46
2023/07/31 08:42:50;;;;;;;;;5.75;5.00;;;;;26.06;42.33;101012.22;5096824;27;45534;-41
2023/07/31 08:45:18;;;;;;;;;3.50;3.50;;;;;25.68;42.49;101019.19;5090776;27;45304;-45
2023/07/31 08:47:51;;;;;;;;;4.00;4.00;;;;;25.26;43.68;101015.56;5084450;27;45393;-49
2023/07/31 08:50:18;;;;;;;;;7.25;5.75;;;;;24.93;44.47;101010.91;5067969;27;45776;-48
2023/07/31 08:52:45;;;;;;;;;8.25;4.25;;;;;24.72;44.45;101019.53;5085440;27;46128;-42
2023/07/31 08:55:10;;;;;;;;;7.00;4.50;;;;;24.60;45.49;101013.50;5083526;27;45407;-50
2023/07/31 08:57:37;;;;;;;;;3.00;3.00;;;;;24.48;45.40;101012.09;5089165;27;45459;-49
2023/07/31 09:00:05;;;;;;;;;6.00;4.75;;;;;24.48;46.25;101005.81;5084384;27;45502;-45
2023/07/31 09:02:37;;;;;;;;;5.00;4.50;;;;;24.57;46.26;101002.94;5063170;27;47059;-44
2023/07/31 09:05:05;;;;;;;;;3.00;3.00;;;;;24.55;45.79;101010.44;5077742;27;45595;-44
2023/07/31 09:07:31;;;;;;;;;5.75;4.25;;;;;24.27;46.45;101010.66;5076368;27;45410;-50
2023/07/31 09:09:57;;;;;;;;;7.00;6.50;;;;;24.08;47.52;101000.84;5076772;27;69443;-44
2023/07/31 09:12:22;;;;;;;;;9.50;4.75;;;;;24.09;47.41;101007.13;5073813;27;72123;-43
2023/07/31 09:14:48;;;;;;;;;2.00;2.00;;;;;24.28;47.66;101015.03;5077982;27;72179;-52
2023/07/31 09:17:13;;;;;;;;;4.00;2.25;;;;;24.37;47.46;101025.97;5085393;27;45374;-51
2023/07/31 09:19:38;;;;;;;;;4.00;4.00;;;;;24.35;47.70;101025.28;5082630;27;68380;-46
2023/07/31 09:22:07;;;;;;;;;7.50;4.25;;;;;24.25;47.39;101023.53;5082977;27;46032;-43
2023/07/31 09:24:34;;;;;;;;;5.50;4.25;;;;;24.02;48.46;101028.66;5084666;27;49028;-44
2023/07/31 09:27:00;;;;;;;;;5.33;5.33;;;;;23.78;48.29;101019.28;5094850;27;45589;-42
2023/07/31 09:29:27;;;;;;;;;4.00;3.50;;;;;23.66;49.25;101027.84;5088806;27;45509;-46
2023/07/31 09:31:52;;;;;;;;;4.00;4.00;;;;;23.45;50.07;101029.00;5075505;27;46490;-44
2023/07/31 09:34:18;;;;;;;;;7.00;4.33;;;;;23.34;50.20;101023.84;5083444;27;45742;-43
2023/07/31 09:36:49;;;;;;;;;5.33;4.00;;;;;23.17;50.05;101029.09;5067898;27;45243;-43
2023/07/31 09:39:16;;;;;;;;;5.67;5.33;;;;;23.07;50.76;101025.56;5080639;27;45689;-45
2023/07/31 09:41:44;;;;;;;;;4.67;4.00;;;;;22.96;51.27;101022.06;5073150;27;45919;-43
2023/07/31 09:44:10;;;;;;;;;4.00;4.00;;;;;22.95;51.06;101020.34;5081534;27;45362;-43
2023/07/31 09:46:37;;;;;;;;;5.33;5.33;;;;;23.00;51.42;101016.31;5065566;28;45446;-44
2023/07/31 09:49:06;;;;;;;;;6.00;5.00;;;;;23.05;51.34;101006.72;5084782;27;45708;-43
2023/07/31 09:51:31;;;;;;;;;6.25;4.00;;;;;23.05;51.77;101008.56;5076972;27;45482;-47
2023/07/31 09:53:56;;;;;;;;;7.25;5.50;;;;;23.09;51.75;101002.69;5079302;27;72233;-45
2023/07/31 09:56:23;;;;;;;;;4.00;4.00;;;;;23.21;51.71;101000.66;5078982;27;66510;-47
2023/07/31 09:58:50;;;;;;;;;5.00;3.75;;;;;23.22;52.47;101002.34;5081563;27;45892;-50
2023/07/31 10:01:15;;;;;;;;;5.67;5.00;;;;;23.06;57.60;100991.31;5082563;27;47182;-52
2023/07/31 10:03:42;;;;;;;;;4.67;4.00;;;;;22.80;58.96;100986.63;5086888;27;45373;-51
2023/07/31 10:06:09;;;;;;;;;5.67;4.00;;;;;22.71;56.57;100979.41;5086535;27;45450;-53
2023/07/31 10:08:36;;;;;;;;;6.50;4.50;;;;;22.71;56.48;100984.81;5083948;27;48521;-48
2023/07/31 10:11:02;;;;;;;;;4.00;3.75;;;;;22.55;56.56;100980.91;5086505;27;45333;-52
2023/07/31 10:13:29;;;;;;;;;6.00;6.00;;;;;22.45;55.98;101001.81;5089948;27;46831;-51
2023/07/31 10:15:58;;;;;;;;;4.00;4.00;;;;;22.39;56.33;101002.41;5061856;28;45462;-52
2023/07/31 10:18:24;;;;;;;;;8.00;6.00;;;;;22.23;57.33;100993.00;5085682;27;45482;-51
2023/07/31 10:20:50;;;;;;;;;4.75;4.00;;;;;22.20;57.98;100984.31;5087532;27;45520;-52
2023/07/31 10:23:16;;;;;;;;;4.67;4.00;;;;;22.16;58.84;100981.06;5055132;27;45500;-49
2023/07/31 10:25:42;;;;;;;;;5.33;4.00;;;;;22.18;58.42;100972.81;5084489;27;62260;-51
2023/07/31 10:28:08;;;;;;;;;4.00;4.00;;;;;22.22;59.27;100975.03;5060271;27;63213;-52
2023/07/31 10:30:37;;;;;;;;;8.00;6.00;;;;;22.21;59.18;100967.91;5087756;27;46385;-49
2023/07/31 10:33:03;;;;;;;;;4.00;4.00;;;;;22.20;58.57;100974.38;5073718;27;45858;-50
2023/07/31 10:35:28;;;;;;;;;4.25;3.25;;;;;22.21;59.85;100973.34;5081534;27;50916;-42
2023/07/31 10:37:54;;;;;;;;;6.33;5.00;;;;;22.18;59.78;100967.38;5093434;27;45412;-44
2023/07/31 10:40:26;;;;;;;;;8.50;4.50;;;;;22.19;59.86;100975.34;5083870;27;45334;-43
2023/07/31 10:42:54;;;;;;;;;7.50;5.25;;;;;22.22;60.42;100969.63;5083109;27;45786;-45
2023/07/31 10:45:37;;;;;;;;;8.00;7.67;;;;;22.29;60.76;100965.34;5072673;27;45514;-43
2023/07/31 10:48:07;;;;;;;;;5.75;4.75;;;;;22.45;59.36;100969.28;5072272;27;45362;-43
2023/07/31 10:50:38;;;;;;;;;5.00;4.50;;;;;22.52;60.27;100964.13;5054453;27;47503;-43
2023/07/31 10:53:04;;;;;;;;;4.00;4.00;;;;;22.60;60.35;100967.75;5058158;27;45654;-45
2023/07/31 10:55:38;;;;;;;;;6.33;4.33;;;;;22.74;59.92;100957.44;5053641;27;45986;-47
2023/07/31 10:58:08;;;;;;;;;5.25;5.25;;;;;22.79;60.02;100963.25;5085965;27;45500;-45
2023/07/31 11:00:37;;;;;;;;;3.50;3.50;;;;;22.76;59.51;100953.56;5055783;27;47232;-43
2023/07/31 11:03:10;;;;;;;;;5.00;5.00;;;;;22.77;59.61;100955.22;5084797;27;45547;-44
2023/07/31 11:05:46;;;;;;;;;7.67;5.00;;;;;22.76;59.74;100963.53;5084335;27;45725;-44
2023/07/31 11:08:12;;;;;;;;;6.67;5.33;;;;;22.72;60.69;100948.56;5089454;27;45519;-47
2023/07/31 11:10:37;;;;;;;;;4.75;4.75;;;;;22.69;59.62;100954.31;5083537;27;46332;-48
2023/07/31 11:13:04;;;;;;;;;12.00;4.25;;;;;22.61;60.56;100955.91;5084536;27;65644;-43
2023/07/31 11:15:30;;;;;;;;;9.25;4.00;;;;;22.54;62.10;100943.13;5096318;27;45482;-45
2023/07/31 11:17:57;;;;;;;;;7.00;6.00;;;;;22.45;62.51;100948.44;5092416;27;45709;-45
2023/07/31 11:20:24;;;;;;;;;6.75;4.75;;;;;22.46;61.50;100944.75;5087314;27;47026;-44